createdAt,value
2023-02-02T00:00:57.046Z,4.97
2023-02-02T00:03:23.684Z,6.28
2023-02-02T00:05:52.606Z,4.82
2023-02-02T00:08:21.292Z,5.38
2023-02-02T00:10:47.973Z,5.68
2023-02-02T00:13:14.444Z,5.97
2023-02-02T00:15:40.895Z,5.00
2023-02-02T00:18:07.539Z,4.72
2023-02-02T00:20:36.987Z,6.10
2023-02-02T00:23:04.180Z,5.35
2023-02-02T00:25:31.108Z,4.93
2023-02-02T00:27:57.768Z,5.22
2023-02-02T00:30:24.316Z,6.15
2023-02-02T00:32:52.968Z,5.85
2023-02-02T00:35:20.032Z,5.10
2023-02-02T00:37:46.396Z,5.93
2023-02-02T00:40:12.901Z,5.10
2023-02-02T00:42:39.318Z,5.38
2023-02-02T00:45:18.468Z,5.53
2023-02-02T00:47:46.893Z,5.03
2023-02-02T00:50:19.565Z,5.70
2023-02-02T00:52:49.588Z,5.25
2023-02-02T00:55:17.171Z,5.55
2023-02-02T00:57:46.434Z,5.40
2023-02-02T01:00:16.216Z,5.90
2023-02-02T01:02:43.125Z,5.38
2023-02-02T01:05:10.699Z,5.95
2023-02-02T01:07:37.713Z,6.15
2023-02-02T01:10:05.369Z,5.10
2023-02-02T01:12:32.085Z,6.20
2023-02-02T01:14:58.468Z,5.50
2023-02-02T01:17:24.947Z,6.32
2023-02-02T01:19:51.312Z,5.82
2023-02-02T01:22:17.955Z,6.68
2023-02-02T01:24:44.337Z,6.47
2023-02-02T01:27:10.698Z,6.13
2023-02-02T01:29:37.091Z,6.45
2023-02-02T01:32:04.254Z,5.85
2023-02-02T01:34:30.883Z,6.10
2023-02-02T01:36:57.280Z,6.75
2023-02-02T01:39:23.714Z,6.20
2023-02-02T01:41:50.259Z,5.53
2023-02-02T01:44:54.288Z,6.00
2023-02-02T01:47:23.774Z,4.82
2023-02-02T01:49:50.715Z,6.85
2023-02-02T01:52:19.694Z,5.20
2023-02-02T01:54:51.512Z,5.90
2023-02-02T01:57:33.284Z,5.50
2023-02-02T02:00:02.664Z,6.00
2023-02-02T02:04:57.229Z,6.18
2023-02-02T02:07:23.760Z,6.20
2023-02-02T02:09:50.129Z,6.00
2023-02-02T02:12:16.909Z,5.55
2023-02-02T02:15:05.580Z,6.18
2023-02-02T02:17:44.623Z,6.40
2023-02-02T02:21:28.137Z,6.70
2023-02-02T02:24:24.978Z,6.57
2023-02-02T02:26:58.589Z,7.80
2023-02-02T02:29:49.484Z,6.45
2023-02-02T02:32:46.353Z,6.80
2023-02-02T02:36:00.698Z,6.47
2023-02-02T02:38:39.807Z,7.18
2023-02-02T02:41:16.597Z,7.90
2023-02-02T02:43:59.107Z,6.15
2023-02-02T02:46:26.444Z,6.88
2023-02-02T02:48:53.536Z,6.60
2023-02-02T02:51:45.183Z,7.40
2023-02-02T02:54:15.378Z,6.88
2023-02-02T02:57:03.502Z,6.20
2023-02-02T02:59:36.328Z,7.18
2023-02-02T03:02:26.333Z,6.32
2023-02-02T03:05:07.215Z,6.00
2023-02-02T03:07:41.367Z,5.95
2023-02-02T03:10:11.482Z,8.13
2023-02-02T03:12:48.739Z,8.00
2023-02-02T03:15:16.228Z,6.13
2023-02-02T03:17:45.933Z,7.60
2023-02-02T03:20:12.577Z,7.03
2023-02-02T03:22:39.369Z,7.10
2023-02-02T03:25:07.470Z,7.20
2023-02-02T03:27:34.084Z,7.20
2023-02-02T03:30:00.583Z,7.55
2023-02-02T03:32:26.946Z,7.35
2023-02-02T03:34:53.321Z,7.47
2023-02-02T03:37:19.695Z,8.68
2023-02-02T03:39:46.043Z,7.97
2023-02-02T03:42:12.732Z,8.00
2023-02-02T03:44:39.115Z,6.78
2023-02-02T03:47:05.492Z,7.43
2023-02-02T03:49:32.409Z,7.45
2023-02-02T03:51:58.787Z,8.05
2023-02-02T03:54:25.135Z,6.72
2023-02-02T03:56:51.501Z,8.25
2023-02-02T03:59:17.866Z,7.90
2023-02-02T04:01:44.339Z,7.30
2023-02-02T04:04:10.727Z,8.60
2023-02-02T04:06:37.116Z,8.15
2023-02-02T04:09:03.543Z,7.70
2023-02-02T04:11:30.378Z,7.45
2023-02-02T04:13:56.805Z,7.63
2023-02-02T04:16:23.356Z,8.52
2023-02-02T04:18:49.834Z,9.40
2023-02-02T04:21:16.254Z,8.63
2023-02-02T04:23:42.639Z,8.57
2023-02-02T04:26:09.039Z,7.47
2023-02-02T04:28:35.952Z,8.15
2023-02-02T04:31:02.544Z,8.20
2023-02-02T04:33:29.327Z,8.30
2023-02-02T04:35:55.917Z,7.15
2023-02-02T04:38:22.511Z,7.88
2023-02-02T04:40:49.207Z,9.90
2023-02-02T04:43:16.115Z,8.43
2023-02-02T04:45:42.609Z,7.60
2023-02-02T04:48:09.677Z,7.90
2023-02-02T04:50:36.266Z,7.88
2023-02-02T04:53:03.775Z,8.73
2023-02-02T04:55:30.237Z,7.80
2023-02-02T04:57:56.614Z,7.57
2023-02-02T05:00:23.168Z,7.55
2023-02-02T05:02:49.760Z,8.18
2023-02-02T05:05:16.389Z,8.05
2023-02-02T05:07:42.836Z,8.25
2023-02-02T05:10:10.283Z,7.30
2023-02-02T05:12:36.742Z,8.30
2023-02-02T05:15:05.193Z,7.22
2023-02-02T05:17:32.273Z,8.32
2023-02-02T05:19:58.709Z,6.93
2023-02-02T05:22:25.094Z,7.68
2023-02-02T05:24:51.461Z,7.93
2023-02-02T05:27:17.988Z,8.60
2023-02-02T05:29:44.435Z,7.47
2023-02-02T05:32:10.865Z,8.73
2023-02-02T05:34:37.319Z,8.45
2023-02-02T05:37:03.697Z,7.82
2023-02-02T05:39:30.064Z,8.27
2023-02-02T05:41:56.431Z,9.55
2023-02-02T05:44:22.882Z,8.63
2023-02-02T05:46:49.252Z,7.40
2023-02-02T05:49:15.986Z,9.30
2023-02-02T05:51:50.095Z,8.52
2023-02-02T05:54:20.266Z,7.35
2023-02-02T05:56:48.231Z,7.65
2023-02-02T05:59:15.112Z,8.02
2023-02-02T06:01:41.487Z,8.05
2023-02-02T06:04:07.947Z,8.05
2023-02-02T06:06:35.632Z,8.65
2023-02-02T06:09:02.561Z,9.32
2023-02-02T06:11:28.991Z,8.00
2023-02-02T06:13:55.741Z,8.43
2023-02-02T06:16:22.171Z,7.93
2023-02-02T06:18:48.592Z,8.43
2023-02-02T06:21:15.252Z,8.30
2023-02-02T06:23:45.775Z,8.77
2023-02-02T06:26:16.941Z,7.57
2023-02-02T06:28:47.910Z,8.38
2023-02-02T06:31:15.409Z,8.82
2023-02-02T06:33:41.862Z,7.45
2023-02-02T06:36:08.372Z,7.13
2023-02-02T06:38:34.815Z,8.55
2023-02-02T06:41:02.491Z,8.30
2023-02-02T06:43:29.617Z,9.00
2023-02-02T06:45:59.405Z,8.05
2023-02-02T06:48:26.873Z,7.93
2023-02-02T06:50:54.021Z,8.07
2023-02-02T06:53:23.168Z,7.88
2023-02-02T06:55:54.412Z,9.07
2023-02-02T06:58:20.844Z,8.45
2023-02-02T07:00:48.171Z,7.95
2023-02-02T07:03:16.027Z,7.45
2023-02-02T07:05:42.587Z,8.15
2023-02-02T07:08:09.364Z,8.85
2023-02-02T07:11:13.627Z,7.60
2023-02-02T07:13:25.305Z,8.20
2023-02-02T07:15:51.732Z,7.38
2023-02-02T07:18:18.132Z,7.45
2023-02-02T07:20:44.523Z,8.60
2023-02-02T07:23:10.911Z,8.30
2023-02-02T07:25:37.442Z,7.35
2023-02-02T07:28:04.060Z,7.72
2023-02-02T07:30:30.664Z,8.25
2023-02-02T07:32:57.349Z,7.95
2023-02-02T07:35:24.349Z,7.88
2023-02-02T07:37:52.809Z,7.40
2023-02-02T07:40:19.586Z,8.85
2023-02-02T07:42:47.356Z,7.90
2023-02-02T07:45:36.173Z,8.35
2023-02-02T07:48:00.975Z,8.18
2023-02-02T07:50:28.759Z,8.00
2023-02-02T07:52:56.055Z,7.50
2023-02-02T07:55:22.577Z,7.97
2023-02-02T07:57:51.283Z,8.23
2023-02-02T08:00:18.163Z,7.78
2023-02-02T08:02:44.721Z,8.02
2023-02-02T08:05:11.689Z,7.95
2023-02-02T08:07:38.093Z,7.78
2023-02-02T08:10:04.806Z,7.50
2023-02-02T08:12:31.568Z,8.20
2023-02-02T08:14:59.001Z,8.07
2023-02-02T08:17:25.416Z,8.52
2023-02-02T08:19:51.807Z,8.10
2023-02-02T08:22:20.276Z,8.30
2023-02-02T08:24:47.007Z,8.15
2023-02-02T08:27:13.418Z,7.45
2023-02-02T08:29:39.786Z,7.32
2023-02-02T08:32:06.314Z,7.47
2023-02-02T08:34:36.743Z,7.30
2023-02-02T08:37:03.887Z,7.47
2023-02-02T08:39:30.276Z,6.85
2023-02-02T08:41:56.750Z,7.45
2023-02-02T08:44:23.678Z,8.00
2023-02-02T08:46:52.974Z,8.00
2023-02-02T08:49:19.457Z,8.30
2023-02-02T08:51:45.908Z,7.53
2023-02-02T08:54:12.869Z,7.88
2023-02-02T08:56:39.308Z,7.55
2023-02-02T08:59:05.895Z,7.30
2023-02-02T09:01:33.979Z,7.38
2023-02-02T09:04:04.471Z,7.68
2023-02-02T09:06:40.889Z,7.22
2023-02-02T09:09:09.801Z,7.72
2023-02-02T09:11:36.969Z,8.50
2023-02-02T09:14:03.649Z,8.18
2023-02-02T09:16:30.153Z,7.95
2023-02-02T09:18:56.710Z,8.57
2023-02-02T09:21:23.646Z,8.27
2023-02-02T09:23:51.437Z,8.20
2023-02-02T09:26:19.228Z,8.02
2023-02-02T09:28:48.457Z,8.27
2023-02-02T09:31:15.486Z,8.32
2023-02-02T09:33:42.414Z,8.70
2023-02-02T09:36:09.111Z,8.35
2023-02-02T09:38:36.473Z,9.07
2023-02-02T09:41:19.511Z,9.23
2023-02-02T09:44:39.782Z,7.43
2023-02-02T09:47:33.241Z,7.50
2023-02-02T09:50:21.042Z,8.60
2023-02-02T09:52:58.630Z,8.82
2023-02-02T09:55:27.618Z,8.77
2023-02-02T09:58:19.435Z,8.38
2023-02-02T10:01:13.671Z,9.32
2023-02-02T10:04:11.292Z,9.18
2023-02-02T10:06:40.789Z,9.88
2023-02-02T10:09:16.296Z,9.63
2023-02-02T10:12:05.101Z,9.13
2023-02-02T10:14:41.852Z,8.80
2023-02-02T10:17:30.818Z,8.40
2023-02-02T10:20:06.616Z,8.13
2023-02-02T10:22:34.320Z,9.23
2023-02-02T10:25:00.755Z,8.52
2023-02-02T10:27:40.595Z,8.43
2023-02-02T10:30:24.489Z,8.07
2023-02-02T10:33:34.474Z,8.48
2023-02-02T10:36:37.383Z,8.23
2023-02-02T10:39:18.441Z,6.32
2023-02-02T10:42:04.256Z,7.38
2023-02-02T10:44:49.398Z,6.65
2023-02-02T10:47:37.539Z,7.47
2023-02-02T10:50:12.995Z,7.07
2023-02-02T10:52:43.956Z,7.28
2023-02-02T10:55:10.321Z,6.38
2023-02-02T10:58:01.702Z,7.70
2023-02-02T11:00:35.616Z,6.85
2023-02-02T11:03:04.732Z,6.90
2023-02-02T11:05:50.362Z,7.43
2023-02-02T11:10:56.989Z,6.30
2023-02-02T11:13:31.923Z,8.45
2023-02-02T11:16:16.823Z,8.15
2023-02-02T11:18:44.869Z,7.88
2023-02-02T11:21:29.049Z,7.88
2023-02-02T11:24:05.040Z,8.00
2023-02-02T11:26:51.561Z,7.15
2023-02-02T11:29:24.858Z,7.35
2023-02-02T11:31:51.390Z,7.93
2023-02-02T11:34:28.314Z,7.18
2023-02-02T11:37:14.854Z,8.57
2023-02-02T11:39:43.180Z,7.28
2023-02-02T11:42:18.346Z,7.57
2023-02-02T11:47:25.937Z,6.90
2023-02-02T11:49:55.563Z,7.38
2023-02-02T11:52:26.909Z,7.68
2023-02-02T11:54:57.239Z,8.02
2023-02-02T11:57:25.734Z,7.43
2023-02-02T12:00:12.447Z,7.75
2023-02-02T12:02:46.464Z,7.38
2023-02-02T12:05:23.512Z,7.32
2023-02-02T12:07:49.916Z,7.53
2023-02-02T12:10:33.422Z,7.85
2023-02-02T12:13:10.177Z,7.93
2023-02-02T12:15:57.693Z,7.05
2023-02-02T12:18:55.904Z,7.88
2023-02-02T12:21:40.365Z,6.53
2023-02-02T12:24:42.374Z,7.80
2023-02-02T12:27:17.894Z,6.95
2023-02-02T12:29:59.016Z,7.63
2023-02-02T12:32:41.697Z,7.45
2023-02-02T12:35:26.339Z,7.70
2023-02-02T12:38:28.221Z,7.67
2023-02-02T12:41:13.191Z,6.85
2023-02-02T12:43:42.527Z,7.88
2023-02-02T12:46:20.249Z,6.63
2023-02-02T12:49:10.982Z,7.32
2023-02-02T12:51:54.355Z,7.85
2023-02-02T12:55:00.333Z,7.10
2023-02-02T12:58:02.227Z,7.55
2023-02-02T13:00:50.716Z,7.47
2023-02-02T13:03:51.922Z,8.40
2023-02-02T13:06:30.432Z,7.47
2023-02-02T13:09:02.968Z,7.80
2023-02-02T13:11:41.963Z,7.03
2023-02-02T13:14:21.302Z,8.57
2023-02-02T13:16:53.532Z,7.68
2023-02-02T13:19:40.398Z,6.72
2023-02-02T13:22:14.418Z,6.90
2023-02-02T13:24:44.112Z,7.10
2023-02-02T13:27:15.659Z,6.80
2023-02-02T13:29:47.781Z,8.05
2023-02-02T13:32:20.792Z,6.97
2023-02-02T13:34:50.299Z,7.97
2023-02-02T13:37:37.253Z,7.45
2023-02-02T13:40:32.064Z,7.18
2023-02-02T13:43:08.947Z,6.25
2023-02-02T13:45:47.106Z,6.30
2023-02-02T13:48:28.379Z,6.22
2023-02-02T13:51:23.144Z,7.97
2023-02-02T13:54:17.066Z,6.78
2023-02-02T13:56:46.545Z,8.63
2023-02-02T14:00:03.829Z,6.63
2023-02-02T14:02:39.862Z,6.22
2023-02-02T14:05:08.884Z,6.70
2023-02-02T14:07:43.946Z,6.25
2023-02-02T14:10:38.027Z,6.03
2023-02-02T14:13:30.037Z,5.90
2023-02-02T14:15:59.553Z,6.13
2023-02-02T14:18:51.066Z,5.75
2023-02-02T14:21:32.838Z,5.63
2023-02-02T14:24:12.740Z,5.47
2023-02-02T14:26:46.230Z,6.15
2023-02-02T14:29:36.034Z,6.22
2023-02-02T14:32:21.431Z,5.03
2023-02-02T14:34:49.235Z,5.18
2023-02-02T14:37:25.178Z,5.38
2023-02-02T14:40:06.600Z,5.47
2023-02-02T14:43:13.908Z,5.28
2023-02-02T14:45:48.840Z,5.10
2023-02-02T14:48:34.568Z,5.90
2023-02-02T14:51:02.540Z,4.97
2023-02-02T14:53:33.447Z,5.93
2023-02-02T14:56:13.588Z,4.70
2023-02-02T14:58:45.821Z,4.80
2023-02-02T15:01:25.956Z,4.50
2023-02-02T15:04:15.653Z,4.65
2023-02-02T15:06:43.192Z,4.20
2023-02-02T15:09:33.342Z,4.13
2023-02-02T15:12:02.534Z,5.50
2023-02-02T15:15:03.237Z,3.58
2023-02-02T15:17:42.000Z,3.63
2023-02-02T15:20:40.408Z,3.55
2023-02-02T15:23:22.361Z,2.90
2023-02-02T15:25:59.265Z,3.10
2023-02-02T15:28:44.501Z,3.72
2023-02-02T15:31:10.974Z,3.42
2023-02-02T15:33:40.189Z,2.72
2023-02-02T15:36:13.983Z,3.97
2023-02-02T15:38:43.004Z,3.30
2023-02-02T15:41:25.756Z,3.67
2023-02-02T15:43:53.223Z,3.08
2023-02-02T15:46:26.335Z,2.83
2023-02-02T15:49:32.816Z,2.50
2023-02-02T15:52:03.626Z,2.63
2023-02-02T15:54:33.137Z,2.70
2023-02-02T15:57:01.260Z,3.03
2023-02-02T15:59:30.794Z,2.67
2023-02-02T16:02:19.819Z,2.55
2023-02-02T16:04:46.534Z,2.60
2023-02-02T16:07:17.375Z,5.70
2023-02-02T16:09:44.135Z,2.35
2023-02-02T16:12:20.144Z,2.33
2023-02-02T16:14:49.505Z,2.03
2023-02-02T16:17:24.522Z,2.22
2023-02-02T16:19:56.842Z,2.15
2023-02-02T16:22:25.439Z,2.20
2023-02-02T16:24:55.927Z,2.10
2023-02-02T16:27:25.293Z,2.30
2023-02-02T16:29:52.477Z,4.50
2023-02-02T16:32:34.044Z,10.52
2023-02-02T16:35:04.369Z,2.85
2023-02-02T16:37:32.988Z,5.30
2023-02-02T16:40:30.431Z,2.75
2023-02-02T16:43:20.458Z,2.35
2023-02-02T16:45:53.657Z,3.22
2023-02-02T16:48:41.036Z,3.88
2023-02-02T16:51:16.799Z,2.88
2023-02-02T16:54:06.474Z,3.17
2023-02-02T16:56:39.233Z,7.15
2023-02-02T16:59:15.707Z,3.05
2023-02-02T17:01:46.444Z,2.70
2023-02-02T17:04:26.627Z,2.20
2023-02-02T17:06:55.194Z,2.92
2023-02-02T17:09:30.914Z,7.45
2023-02-02T17:12:35.030Z,3.72
2023-02-02T17:15:23.241Z,4.43
2023-02-02T17:17:51.772Z,2.47
2023-02-02T17:20:19.605Z,2.20
2023-02-02T17:22:48.461Z,2.40
2023-02-02T17:25:37.681Z,2.90
2023-02-02T17:28:09.971Z,3.25
2023-02-02T17:30:36.902Z,3.03
2023-02-02T17:33:03.497Z,2.30
2023-02-02T17:35:43.455Z,2.45
2023-02-02T17:38:13.881Z,2.25
2023-02-02T17:40:40.285Z,2.15
2023-02-02T17:43:11.001Z,2.55
2023-02-02T17:45:38.598Z,2.17
2023-02-02T17:48:05.995Z,2.50
2023-02-02T17:50:33.675Z,2.17
2023-02-02T17:53:00.130Z,2.50
2023-02-02T17:55:37.255Z,2.30
2023-02-02T17:58:03.934Z,2.65
2023-02-02T18:00:31.606Z,2.42
2023-02-02T18:03:12.117Z,2.75
2023-02-02T18:05:40.184Z,2.80
2023-02-02T18:08:10.303Z,2.40
2023-02-02T18:10:38.106Z,3.22
2023-02-02T18:13:05.268Z,3.17
2023-02-02T18:15:31.713Z,3.85
2023-02-02T18:17:58.224Z,3.20
2023-02-02T18:20:24.630Z,2.95
2023-02-02T18:22:51.972Z,2.95
2023-02-02T18:25:18.609Z,2.85
2023-02-02T18:27:45.074Z,2.88
2023-02-02T18:30:12.175Z,2.38
2023-02-02T18:32:40.084Z,2.67
2023-02-02T18:35:08.521Z,2.88
2023-02-02T18:37:36.166Z,2.92
2023-02-02T18:40:02.902Z,2.70
2023-02-02T18:42:32.067Z,3.03
2023-02-02T18:45:01.644Z,2.95
2023-02-02T18:47:28.562Z,2.92
2023-02-02T18:49:55.232Z,3.03
2023-02-02T18:52:21.627Z,3.70
2023-02-02T18:54:48.167Z,3.78
2023-02-02T18:57:15.392Z,3.50
2023-02-02T18:59:42.580Z,3.63
2023-02-02T19:02:17.842Z,7.03
2023-02-02T19:05:05.130Z,6.28
2023-02-02T19:07:50.941Z,6.25
2023-02-02T19:10:18.100Z,7.57
2023-02-02T19:12:55.769Z,8.13
2023-02-02T19:15:22.882Z,10.73
2023-02-02T19:17:52.845Z,6.95
2023-02-02T19:20:25.273Z,8.85
2023-02-02T19:22:56.292Z,7.75
2023-02-02T19:25:22.679Z,9.90
2023-02-02T19:27:49.245Z,6.20
2023-02-02T19:30:20.062Z,6.25
2023-02-02T19:32:46.501Z,6.57
2023-02-02T19:35:22.553Z,9.15
2023-02-02T19:37:53.955Z,6.78
2023-02-02T19:40:23.601Z,5.47
2023-02-02T19:42:56.404Z,6.05
2023-02-02T19:45:29.710Z,6.40
2023-02-02T19:47:58.182Z,6.43
2023-02-02T19:50:27.825Z,6.38
2023-02-02T19:52:55.663Z,6.35
2023-02-02T19:55:34.726Z,7.20
2023-02-02T19:58:12.552Z,6.78
2023-02-02T20:00:40.951Z,8.68
2023-02-02T20:03:15.472Z,6.70
2023-02-02T20:05:44.886Z,6.63
2023-02-02T20:08:30.029Z,7.15
2023-02-02T20:11:00.772Z,7.45
2023-02-02T20:13:43.305Z,7.00
2023-02-02T20:16:18.598Z,6.40
2023-02-02T20:18:48.586Z,6.80
2023-02-02T20:21:41.143Z,7.38
2023-02-02T20:24:16.546Z,7.13
2023-02-02T20:26:43.065Z,7.72
2023-02-02T20:29:36.608Z,7.32
2023-02-02T20:32:05.020Z,7.25
2023-02-02T20:34:35.914Z,7.03
2023-02-02T20:37:29.166Z,7.10
2023-02-02T20:40:03.229Z,7.60
2023-02-02T20:42:30.104Z,7.22
2023-02-02T20:44:58.027Z,8.48
2023-02-02T20:47:24.570Z,7.40
2023-02-02T20:49:51.193Z,7.68
2023-02-02T20:52:23.478Z,7.82
2023-02-02T20:54:51.490Z,6.97
2023-02-02T20:57:18.441Z,7.45
2023-02-02T20:59:45.013Z,7.28
2023-02-02T21:02:19.071Z,7.70
2023-02-02T21:04:47.450Z,7.38
2023-02-02T21:07:16.826Z,7.88
2023-02-02T21:09:44.728Z,6.47
2023-02-02T21:12:11.788Z,6.68
2023-02-02T21:14:38.874Z,6.82
2023-02-02T21:17:14.883Z,7.20
2023-02-02T21:19:42.358Z,6.22
2023-02-02T21:22:08.919Z,7.30
2023-02-02T21:24:35.305Z,7.20
2023-02-02T21:27:03.268Z,7.03
2023-02-02T21:29:31.692Z,6.72
2023-02-02T21:32:00.683Z,7.22
2023-02-02T21:34:27.405Z,6.97
2023-02-02T21:36:59.022Z,6.15
2023-02-02T21:39:34.451Z,6.55
2023-02-02T21:42:00.976Z,6.80
2023-02-02T21:44:27.566Z,6.40
2023-02-02T21:46:54.031Z,7.00
2023-02-02T21:49:35.361Z,6.43
2023-02-02T21:52:12.187Z,6.68
2023-02-02T21:54:39.534Z,6.18
2023-02-02T21:57:21.150Z,6.60
2023-02-02T21:59:54.177Z,6.75
2023-02-02T22:02:38.164Z,6.45
2023-02-02T22:05:17.881Z,6.65
2023-02-02T22:07:47.416Z,6.80
2023-02-02T22:10:29.183Z,6.80
2023-02-02T22:12:55.790Z,7.07
2023-02-02T22:15:28.761Z,5.97
2023-02-02T22:17:55.114Z,6.53
2023-02-02T22:20:33.568Z,6.13
2023-02-02T22:23:02.049Z,6.50
2023-02-02T22:25:35.789Z,6.03
2023-02-02T22:28:16.890Z,6.70
2023-02-02T22:30:43.687Z,6.55
2023-02-02T22:33:12.249Z,6.90
2023-02-02T22:35:39.455Z,6.97
2023-02-02T22:38:06.480Z,6.30
2023-02-02T22:40:32.996Z,6.65
2023-02-02T22:43:02.053Z,6.53
2023-02-02T22:45:28.849Z,5.75
2023-02-02T22:47:55.318Z,6.57
2023-02-02T22:50:25.515Z,6.65
2023-02-02T22:52:52.393Z,6.88
2023-02-02T22:55:19.528Z,6.53
2023-02-02T22:57:46.325Z,6.18
2023-02-02T23:00:29.145Z,7.20
2023-02-02T23:02:55.987Z,7.20
2023-02-02T23:05:23.828Z,6.60
2023-02-02T23:07:50.369Z,5.75
2023-02-02T23:10:19.440Z,5.72
2023-02-02T23:12:46.803Z,6.07
2023-02-02T23:15:14.084Z,6.68
2023-02-02T23:17:41.139Z,5.97
2023-02-02T23:20:12.612Z,6.20
2023-02-02T23:22:39.166Z,6.90
2023-02-02T23:25:06.315Z,6.47
2023-02-02T23:27:32.886Z,6.25
2023-02-02T23:29:59.295Z,7.07
2023-02-02T23:32:25.684Z,6.90
2023-02-02T23:34:52.237Z,6.22
2023-02-02T23:37:18.743Z,6.53
2023-02-02T23:39:45.282Z,6.63
2023-02-02T23:42:11.828Z,6.70
2023-02-02T23:44:38.181Z,7.30
2023-02-02T23:47:05.177Z,7.03
2023-02-02T23:49:33.175Z,6.65
2023-02-02T23:52:00.125Z,6.93
2023-02-02T23:54:27.302Z,6.47
2023-02-02T23:56:53.742Z,6.50
2023-02-02T23:59:20.126Z,7.03
